Time;durP1;ratioP1;P1;durP2;ratioP2;P2;SDS_P1;SDS_P2;PMS_P1;PMS_P2;Temp;Humidity;BMP_temperature;BMP_pressure;BME280_temperature;BME280_humidity;BME280_pressure;Samples;Min_cycle;Max_cycle;Signal;HPM_P1;HPM_P2
2023/02/13 00:00:32;;;;;;;8.98;5.13;;;;;;;;;;5011598;28;20038;-72
2023/02/13 00:02:57;;;;;;;11.68;6.00;;;;;;;;;;5012164;28;20041;-74
2023/02/13 00:05:23;;;;;;;12.07;6.20;;;;;;;;;;5008974;28;20068;-74
2023/02/13 00:07:48;;;;;;;12.55;6.20;;;;;;;;;;5013136;28;20540;-75
2023/02/13 00:10:13;;;;;;;14.25;7.05;;;;;;;;;;5010254;28;20040;-73
2023/02/13 00:12:39;;;;;;;12.27;6.72;;;;;;;;;;5015203;28;20061;-73
2023/02/13 00:15:05;;;;;;;12.43;7.03;;;;;;;;;;5016589;28;20040;-73
2023/02/13 00:17:31;;;;;;;15.23;7.03;;;;;;;;;;5017225;28;20469;-73
2023/02/13 00:19:56;;;;;;;13.45;7.57;;;;;;;;;;5013247;28;20087;-74
2023/02/13 00:22:22;;;;;;;13.45;7.80;;;;;;;;;;5015647;28;20044;-73
2023/02/13 00:24:47;;;;;;;13.40;7.20;;;;;;;;;;5016483;28;20041;-74
2023/02/13 00:27:12;;;;;;;14.57;7.95;;;;;;;;;;5016999;28;20030;-73
2023/02/13 00:29:38;;;;;;;15.40;8.95;;;;;;;;;;5016197;28;20120;-73
2023/02/13 00:32:04;;;;;;;14.80;7.97;;;;;;;;;;5011113;28;20132;-73
2023/02/13 00:34:29;;;;;;;16.65;8.52;;;;;;;;;;5016522;28;20055;-72
2023/02/13 00:36:54;;;;;;;17.35;9.15;;;;;;;;;;5015496;28;20034;-73
2023/02/13 00:39:20;;;;;;;15.95;8.80;;;;;;;;;;5016276;28;20087;-73
2023/02/13 00:41:45;;;;;;;19.70;9.43;;;;;;;;;;5016735;28;20029;-73
2023/02/13 00:44:11;;;;;;;18.05;8.82;;;;;;;;;;5015690;28;20036;-73
2023/02/13 00:46:37;;;;;;;18.20;9.27;;;;;;;;;;5016436;28;20488;-73
2023/02/13 00:49:03;;;;;;;16.83;9.68;;;;;;;;;;5014681;28;20037;-73
2023/02/13 00:51:29;;;;;;;18.52;10.30;;;;;;;;;;5014914;28;20041;-73
2023/02/13 00:53:54;;;;;;;16.35;9.85;;;;;;;;;;5015907;28;20520;-73
2023/02/13 00:56:19;;;;;;;20.23;10.68;;;;;;;;;;5016069;28;20030;-73
2023/02/13 00:58:45;;;;;;;15.13;9.48;;;;;;;;;;5016231;28;20466;-73
2023/02/13 01:01:10;;;;;;;22.50;11.27;;;;;;;;;;5010207;28;20049;-73
2023/02/13 01:03:36;;;;;;;18.08;9.70;;;;;;;;;;5031378;28;20037;-73
2023/02/13 01:06:01;;;;;;;20.20;10.20;;;;;;;;;;5015800;28;20037;-73
2023/02/13 01:08:29;;;;;;;18.75;9.75;;;;;;;;;;5016066;28;20034;-73
2023/02/13 01:10:55;;;;;;;17.70;10.60;;;;;;;;;;5014456;28;20042;-73
2023/02/13 01:13:20;;;;;;;18.52;10.45;;;;;;;;;;5016009;28;20116;-73
2023/02/13 01:15:47;;;;;;;20.55;10.70;;;;;;;;;;5014236;28;20037;-73
2023/02/13 01:18:14;;;;;;;11.13;6.93;;;;;;;;;;5015962;28;20041;-73
2023/02/13 01:20:42;;;;;;;19.13;10.10;;;;;;;;;;5010443;28;20121;-73
2023/02/13 01:23:08;;;;;;;17.05;9.50;;;;;;;;;;5015564;28;20084;-73
2023/02/13 01:25:33;;;;;;;16.83;7.93;;;;;;;;;;5014295;28;20431;-73
2023/02/13 01:27:59;;;;;;;16.02;8.45;;;;;;;;;;5015646;28;20398;-73
2023/02/13 01:30:24;;;;;;;18.10;8.98;;;;;;;;;;5015417;28;20052;-73
2023/02/13 01:32:49;;;;;;;17.67;9.15;;;;;;;;;;5014789;28;20489;-73
2023/02/13 01:35:15;;;;;;;16.05;9.43;;;;;;;;;;5012075;28;20065;-73
2023/02/13 01:37:41;;;;;;;17.10;8.68;;;;;;;;;;5014383;28;20482;-73
2023/02/13 01:40:10;;;;;;;16.85;9.10;;;;;;;;;;5014006;28;20433;-73
2023/02/13 01:42:35;;;;;;;18.73;9.55;;;;;;;;;;5015660;28;20042;-73
2023/02/13 01:45:04;;;;;;;18.02;8.98;;;;;;;;;;5014979;28;20493;-73
2023/02/13 01:48:03;;;;;;;15.73;8.10;;;;;;;;;;5015440;28;20029;-73
2023/02/13 01:50:52;;;;;;;19.23;8.52;;;;;;;;;;5001767;28;20053;-73
2023/02/13 01:53:24;;;;;;;12.75;7.55;;;;;;;;;;5030491;28;20046;-74
2023/02/13 01:55:54;;;;;;;21.88;8.55;;;;;;;;;;5013654;28;20038;-74
2023/02/13 01:58:22;;;;;;;13.73;7.25;;;;;;;;;;5015076;28;20485;-73
2023/02/13 02:00:48;;;;;;;16.23;7.75;;;;;;;;;;5008770;28;20071;-73
2023/02/13 02:03:32;;;;;;;16.90;8.50;;;;;;;;;;5014894;28;20061;-73
2023/02/13 02:05:58;;;;;;;18.80;8.95;;;;;;;;;;5013593;28;20034;-72
2023/02/13 02:08:24;;;;;;;14.85;8.02;;;;;;;;;;5013314;28;20038;-73
2023/02/13 02:10:50;;;;;;;13.85;7.75;;;;;;;;;;5013519;28;20037;-74
2023/02/13 02:13:18;;;;;;;17.08;8.90;;;;;;;;;;5013507;28;20030;-73
2023/02/13 02:15:44;;;;;;;15.25;8.77;;;;;;;;;;5014680;28;20041;-73
2023/02/13 02:18:17;;;;;;;15.88;7.53;;;;;;;;;;5013603;28;20038;-73
2023/02/13 02:21:13;;;;;;;17.95;8.73;;;;;;;;;;5013368;28;20030;-73
2023/02/13 02:24:10;;;;;;;15.35;8.93;;;;;;;;;;5014562;28;20045;-73
2023/02/13 02:27:03;;;;;;;18.27;9.63;;;;;;;;;;5014864;28;20041;-73
2023/02/13 02:29:35;;;;;;;14.68;7.55;;;;;;;;;;5012670;28;20042;-73
2023/02/13 02:32:06;;;;;;;16.65;8.45;;;;;;;;;;5013327;28;20033;-73
2023/02/13 02:34:47;;;;;;;14.75;8.65;;;;;;;;;;5013207;28;20386;-73
2023/02/13 02:37:19;;;;;;;18.42;8.07;;;;;;;;;;5014328;28;20121;-73
2023/02/13 02:40:09;;;;;;;10.68;6.35;;;;;;;;;;5029418;28;20065;-73
2023/02/13 02:42:58;;;;;;;16.17;8.68;;;;;;;;;;5003018;28;20210;-73
2023/02/13 02:45:46;;;;;;;18.13;7.90;;;;;;;;;;5012072;28;20473;-73
2023/02/13 02:51:25;;;;;;;14.87;7.70;;;;;;;;;;5012613;28;20060;-73
2023/02/13 02:56:57;;;;;;;16.67;8.10;;;;;;;;;;5013001;28;20053;-73
2023/02/13 03:06:09;;;;;;;16.67;9.00;;;;;;;;;;5025164;28;20556;-73
2023/02/13 03:08:04;;;;;;;16.95;8.75;;;;;;;;;;5006835;28;20049;-74
2023/02/13 03:13:38;;;;;;;19.70;8.88;;;;;;;;;;5003834;28;20049;-73
2023/02/13 03:24:27;;;;;;;14.13;6.95;;;;;;;;;;5009501;28;20467;-73
2023/02/13 03:26:52;;;;;;;16.52;8.55;;;;;;;;;;5012557;28;20029;-74
2023/02/13 03:32:26;;;;;;;15.05;8.27;;;;;;;;;;5011966;28;20069;-73
2023/02/13 03:37:54;;;;;;;18.15;9.70;;;;;;;;;;5007687;28;20121;-73
2023/02/13 03:40:29;;;;;;;17.90;8.38;;;;;;;;;;5026543;28;20036;-73
2023/02/13 03:43:15;;;;;;;16.25;9.27;;;;;;;;;;5012350;28;20041;-73
2023/02/13 03:45:55;;;;;;;18.30;8.75;;;;;;;;;;5005947;28;20057;-73
2023/02/13 03:51:32;;;;;;;16.33;8.13;;;;;;;;;;5010826;28;20096;-74
2023/02/13 03:54:00;;;;;;;15.95;8.60;;;;;;;;;;5011738;28;20137;-73
2023/02/13 03:59:19;;;;;;;18.92;8.98;;;;;;;;;;5011099;28;20044;-73
2023/02/13 04:02:00;;;;;;;18.52;9.05;;;;;;;;;;5028119;28;20385;-73
2023/02/13 04:04:57;;;;;;;18.23;8.23;;;;;;;;;;5019805;28;20033;-73
2023/02/13 04:07:30;;;;;;;17.20;8.30;;;;;;;;;;4999338;28;20029;-73
2023/02/13 04:09:59;;;;;;;15.88;8.27;;;;;;;;;;5012914;28;20029;-73
2023/02/13 04:12:48;;;;;;;18.08;9.30;;;;;;;;;;5010647;28;20037;-73
2023/02/13 04:15:18;;;;;;;15.50;7.72;;;;;;;;;;5007274;28;20042;-73
2023/02/13 04:18:14;;;;;;;16.95;8.70;;;;;;;;;;5009187;28;20042;-73
2023/02/13 04:20:39;;;;;;;12.23;6.22;;;;;;;;;;4997404;28;20049;-73
2023/02/13 04:23:09;;;;;;;17.33;8.88;;;;;;;;;;5011640;28;20080;-73
2023/02/13 04:25:36;;;;;;;16.15;8.38;;;;;;;;;;5011681;28;20030;-73
2023/02/13 04:28:02;;;;;;;16.05;8.57;;;;;;;;;;4992700;28;20042;-73
2023/02/13 04:30:27;;;;;;;16.70;7.72;;;;;;;;;;5004939;28;20548;-73
2023/02/13 04:32:53;;;;;;;18.13;9.15;;;;;;;;;;5011079;28;20030;-74
2023/02/13 04:35:18;;;;;;;15.88;8.52;;;;;;;;;;5012727;28;20077;-73
2023/02/13 04:37:44;;;;;;;17.73;8.32;;;;;;;;;;5009696;28;20385;-72
2023/02/13 04:40:10;;;;;;;13.90;6.38;;;;;;;;;;5012700;28;20088;-72
2023/02/13 04:42:35;;;;;;;10.98;5.43;;;;;;;;;;5006414;28;20041;-73
2023/02/13 04:45:00;;;;;;;15.30;8.02;;;;;;;;;;5034377;28;20046;-73
2023/02/13 04:47:26;;;;;;;14.13;7.63;;;;;;;;;;5011171;28;20037;-73
2023/02/13 04:49:51;;;;;;;16.10;6.82;;;;;;;;;;5012538;28;20034;-72
2023/02/13 04:52:17;;;;;;;11.20;6.25;;;;;;;;;;5012639;28;20473;-72
2023/02/13 04:54:42;;;;;;;15.32;7.68;;;;;;;;;;5012197;28;20022;-73
2023/02/13 04:57:08;;;;;;;14.45;7.35;;;;;;;;;;5027920;28;20053;-73
2023/02/13 04:59:33;;;;;;;14.45;7.47;;;;;;;;;;5013185;28;20034;-73
2023/02/13 05:01:59;;;;;;;12.40;6.03;;;;;;;;;;5014069;28;20113;-73
2023/02/13 05:04:24;;;;;;;15.52;7.82;;;;;;;;;;5012698;28;20080;-73
2023/02/13 05:06:50;;;;;;;14.15;6.68;;;;;;;;;;5031233;28;20526;-73
2023/02/13 05:09:16;;;;;;;17.52;7.82;;;;;;;;;;5014229;28;20033;-72
2023/02/13 05:11:41;;;;;;;16.45;7.90;;;;;;;;;;5011819;28;20394;-72
2023/02/13 05:14:08;;;;;;;16.17;7.63;;;;;;;;;;5015589;28;20054;-73
2023/02/13 05:16:33;;;;;;;16.80;8.25;;;;;;;;;;5016087;28;20385;-73
2023/02/13 05:18:59;;;;;;;14.23;7.40;;;;;;;;;;5015780;28;20041;-73
2023/02/13 05:24:08;;;;;;;10.55;5.45;;;;;;;;;;5014895;28;20041;-73
2023/02/13 05:26:34;;;;;;;16.52;7.53;;;;;;;;;;5016047;28;20037;-73
2023/02/13 05:29:17;;;;;;;17.38;8.00;;;;;;;;;;5015263;28;20382;-72
2023/02/13 05:31:43;;;;;;;15.88;7.22;;;;;;;;;;5015399;28;20091;-73
2023/02/13 05:34:09;;;;;;;13.63;6.80;;;;;;;;;;5030586;28;20393;-72
2023/02/13 05:36:34;;;;;;;17.33;7.00;;;;;;;;;;5013299;28;20083;-73
2023/02/13 05:39:00;;;;;;;18.20;7.70;;;;;;;;;;5014809;28;20042;-73
2023/02/13 05:41:26;;;;;;;12.63;6.88;;;;;;;;;;5009995;28;20062;-72
2023/02/13 05:43:51;;;;;;;14.77;8.02;;;;;;;;;;5015009;28;20168;-73
2023/02/13 05:46:16;;;;;;;13.32;6.85;;;;;;;;;;5013758;28;20044;-73
2023/02/13 05:48:42;;;;;;;11.63;6.18;;;;;;;;;;5013091;28;20070;-73
2023/02/13 05:51:07;;;;;;;16.35;8.50;;;;;;;;;;5012844;28;20042;-72
2023/02/13 05:53:35;;;;;;;18.48;7.80;;;;;;;;;;5015200;28;20092;-73
2023/02/13 05:56:03;;;;;;;15.57;8.65;;;;;;;;;;5013997;28;20037;-72
2023/02/13 05:58:28;;;;;;;18.27;8.32;;;;;;;;;;5013878;28;20045;-72
2023/02/13 06:00:56;;;;;;;16.77;7.95;;;;;;;;;;5014418;28;20030;-72
2023/02/13 06:03:22;;;;;;;13.68;7.20;;;;;;;;;;5013909;28;20037;-72
2023/02/13 06:05:47;;;;;;;17.38;7.13;;;;;;;;;;5014974;28;20465;-73
2023/02/13 06:08:13;;;;;;;19.17;7.78;;;;;;;;;;5014800;28;20043;-73
2023/02/13 06:10:38;;;;;;;15.43;8.20;;;;;;;;;;5014789;28;20036;-72
2023/02/13 06:13:04;;;;;;;15.88;8.15;;;;;;;;;;5014454;28;20057;-73
2023/02/13 06:15:29;;;;;;;14.23;7.82;;;;;;;;;;5010168;28;20029;-72
2023/02/13 06:17:55;;;;;;;15.55;8.30;;;;;;;;;;5014451;28;20054;-73
2023/02/13 06:20:20;;;;;;;17.55;8.65;;;;;;;;;;5005045;28;20034;-73
2023/02/13 06:22:50;;;;;;;18.73;8.50;;;;;;;;;;5014451;28;20053;-74
2023/02/13 06:25:16;;;;;;;18.80;8.45;;;;;;;;;;5013237;28;20042;-73
2023/02/13 06:27:41;;;;;;;16.70;8.35;;;;;;;;;;5014654;28;20544;-73
2023/02/13 06:30:07;;;;;;;15.57;8.45;;;;;;;;;;5008155;28;20030;-73
2023/02/13 06:32:32;;;;;;;18.92;8.05;;;;;;;;;;5013002;28;20449;-74
2023/02/13 06:34:58;;;;;;;20.50;8.68;;;;;;;;;;5029548;28;20092;-73
2023/02/13 06:37:23;;;;;;;16.17;8.50;;;;;;;;;;5014580;28;20029;-73
2023/02/13 06:39:49;;;;;;;17.33;8.30;;;;;;;;;;5013384;28;20052;-72
2023/02/13 06:42:14;;;;;;;22.85;8.65;;;;;;;;;;5014457;28;20033;-73
2023/02/13 06:44:39;;;;;;;22.02;8.77;;;;;;;;;;5013757;28;20092;-73
2023/02/13 06:47:05;;;;;;;15.82;7.75;;;;;;;;;;5014197;28;20088;-73
2023/02/13 06:49:30;;;;;;;15.77;8.27;;;;;;;;;;5025736;28;20386;-72
2023/02/13 06:51:56;;;;;;;16.05;7.55;;;;;;;;;;5013885;28;20073;-72
2023/02/13 06:54:21;;;;;;;17.15;8.52;;;;;;;;;;5013563;28;20041;-73
2023/02/13 06:56:47;;;;;;;20.52;8.23;;;;;;;;;;5013016;28;20421;-72
2023/02/13 06:59:12;;;;;;;18.90;9.20;;;;;;;;;;5028947;28;20432;-72
2023/02/13 07:01:38;;;;;;;17.70;8.52;;;;;;;;;;5013867;28;20068;-73
2023/02/13 07:04:03;;;;;;;19.05;8.43;;;;;;;;;;5023564;28;20029;-73
2023/02/13 07:06:29;;;;;;;13.15;7.78;;;;;;;;;;5003017;28;20038;-73
2023/02/13 07:08:54;;;;;;;15.30;8.00;;;;;;;;;;5007802;28;20051;-72
2023/02/13 07:11:22;;;;;;;15.57;8.50;;;;;;;;;;5010531;28;20022;-73
2023/02/13 07:13:48;;;;;;;21.85;8.75;;;;;;;;;;4996323;28;20028;-75
2023/02/13 07:16:13;;;;;;;14.48;8.45;;;;;;;;;;5013379;28;20045;-72
2023/02/13 07:18:39;;;;;;;17.08;8.48;;;;;;;;;;5013725;28;20061;-72
2023/02/13 07:21:05;;;;;;;22.65;9.07;;;;;;;;;;5013140;28;20044;-73
2023/02/13 07:23:30;;;;;;;17.75;8.68;;;;;;;;;;5013578;28;20500;-73
2023/02/13 07:25:58;;;;;;;17.00;8.23;;;;;;;;;;5013560;28;20033;-73
2023/02/13 07:28:24;;;;;;;16.73;8.50;;;;;;;;;;5021210;28;20038;-72
2023/02/13 07:30:49;;;;;;;20.80;8.68;;;;;;;;;;5012666;28;20076;-73
2023/02/13 07:33:14;;;;;;;21.10;8.23;;;;;;;;;;5013702;28;20116;-72
2023/02/13 07:35:45;;;;;;;16.70;8.57;;;;;;;;;;5012073;28;20083;-73
2023/02/13 07:38:11;;;;;;;23.60;10.25;;;;;;;;;;5013276;28;20033;-73
2023/02/13 07:40:36;;;;;;;18.88;9.77;;;;;;;;;;5013446;28;20041;-73
2023/02/13 07:43:01;;;;;;;17.15;9.25;;;;;;;;;;5012940;28;20113;-73
2023/02/13 07:45:27;;;;;;;16.48;8.95;;;;;;;;;;5010632;28;20034;-73
2023/02/13 07:47:54;;;;;;;15.57;8.13;;;;;;;;;;5012454;28;20463;-72
2023/02/13 07:50:20;;;;;;;18.60;9.07;;;;;;;;;;4998884;28;20079;-76
2023/02/13 07:52:56;;;;;;;17.10;8.80;;;;;;;;;;5012857;28;20068;-72
2023/02/13 07:55:22;;;;;;;17.98;9.40;;;;;;;;;;5025786;28;20072;-73
2023/02/13 07:57:48;;;;;;;18.55;8.85;;;;;;;;;;5011851;28;20478;-73
2023/02/13 08:00:14;;;;;;;18.65;8.80;;;;;;;;;;5012939;28;20033;-72
2023/02/13 08:02:40;;;;;;;17.58;9.30;;;;;;;;;;4999454;28;20033;-72
2023/02/13 08:05:05;;;;;;;22.15;9.65;;;;;;;;;;5013260;28;20042;-72
2023/02/13 08:07:31;;;;;;;12.85;6.70;;;;;;;;;;5004793;28;20501;-72
2023/02/13 08:12:41;;;;;;;19.00;9.27;;;;;;;;;;5007518;28;20048;-72
2023/02/13 08:15:08;;;;;;;20.70;9.00;;;;;;;;;;5013045;28;20030;-72
2023/02/13 08:17:33;;;;;;;19.02;9.27;;;;;;;;;;5027927;28;20034;-73
2023/02/13 08:19:59;;;;;;;16.20;9.25;;;;;;;;;;5011291;28;20036;-72
2023/02/13 08:22:24;;;;;;;18.38;9.45;;;;;;;;;;5006814;28;20030;-72
2023/02/13 08:24:50;;;;;;;20.42;10.77;;;;;;;;;;5007882;28;20041;-73
2023/02/13 08:27:15;;;;;;;19.52;8.82;;;;;;;;;;4999536;28;20109;-72
2023/02/13 08:29:41;;;;;;;23.55;10.55;;;;;;;;;;4999549;28;20362;-73
2023/02/13 08:32:06;;;;;;;21.23;10.00;;;;;;;;;;4998468;28;20085;-72
2023/02/13 08:34:32;;;;;;;20.40;9.63;;;;;;;;;;5000019;28;20398;-73
2023/02/13 08:36:57;;;;;;;22.55;9.27;;;;;;;;;;5008167;28;20029;-72
2023/02/13 08:39:23;;;;;;;19.23;10.02;;;;;;;;;;5014961;28;20042;-72
2023/02/13 08:41:48;;;;;;;17.50;8.48;;;;;;;;;;5013686;28;20083;-74
2023/02/13 08:44:14;;;;;;;19.30;9.75;;;;;;;;;;5012450;28;20038;-72
2023/02/13 08:46:39;;;;;;;18.80;9.52;;;;;;;;;;5007824;28;20042;-73
2023/02/13 08:49:04;;;;;;;24.42;9.50;;;;;;;;;;5010552;28;20481;-73
2023/02/13 08:51:30;;;;;;;23.33;11.35;;;;;;;;;;5014266;28;20049;-72
2023/02/13 08:53:56;;;;;;;20.58;10.70;;;;;;;;;;5016443;28;20129;-74
2023/02/13 08:56:21;;;;;;;24.38;11.52;;;;;;;;;;5012677;28;20100;-72
2023/02/13 08:58:48;;;;;;;24.08;11.75;;;;;;;;;;5010146;28;20141;-73
2023/02/13 09:01:14;;;;;;;19.25;10.57;;;;;;;;;;5014941;28;20125;-73
2023/02/13 09:03:40;;;;;;;28.10;11.15;;;;;;;;;;5013444;28;20494;-73
2023/02/13 09:06:05;;;;;;;23.63;12.27;;;;;;;;;;5016253;28;20034;-73
2023/02/13 09:08:31;;;;;;;21.45;9.93;;;;;;;;;;5010488;28;20046;-72
2023/02/13 09:11:01;;;;;;;26.50;12.82;;;;;;;;;;5004499;28;20457;-73
2023/02/13 09:13:32;;;;;;;22.15;11.75;;;;;;;;;;5008506;28;20037;-74
2023/02/13 09:15:59;;;;;;;20.42;10.63;;;;;;;;;;5008251;28;20065;-73
2023/02/13 09:18:25;;;;;;;23.75;12.32;;;;;;;;;;5007867;28;20034;-72
2023/02/13 09:20:56;;;;;;;24.60;11.60;;;;;;;;;;4997120;28;20347;-76
2023/02/13 09:23:22;;;;;;;22.85;11.88;;;;;;;;;;4999297;28;20441;-73
2023/02/13 09:25:47;;;;;;;30.70;14.10;;;;;;;;;;4990137;28;20145;-74
2023/02/13 09:28:13;;;;;;;23.45;11.80;;;;;;;;;;5012204;28;20462;-73
2023/02/13 09:30:38;;;;;;;28.92;13.98;;;;;;;;;;4997442;28;20084;-73
2023/02/13 09:33:09;;;;;;;37.67;13.32;;;;;;;;;;4999173;28;20484;-72
2023/02/13 09:35:35;;;;;;;24.35;12.73;;;;;;;;;;5003933;28;20033;-73
2023/02/13 09:38:00;;;;;;;30.30;14.27;;;;;;;;;;5007580;28;20038;-73
2023/02/13 09:40:29;;;;;;;25.65;14.25;;;;;;;;;;5010585;28;20485;-73
2023/02/13 09:43:06;;;;;;;27.92;15.02;;;;;;;;;;5006668;28;20144;-73
2023/02/13 09:45:32;;;;;;;32.45;15.18;;;;;;;;;;4997210;28;20160;-73
2023/02/13 09:47:58;;;;;;;28.38;15.43;;;;;;;;;;5010149;28;20116;-72
2023/02/13 09:50:26;;;;;;;30.63;15.75;;;;;;;;;;5004240;28;20057;-72
2023/02/13 09:52:53;;;;;;;31.55;16.13;;;;;;;;;;4992927;28;20053;-73
2023/02/13 09:55:46;;;;;;;26.90;13.43;;;;;;;;;;5011178;28;20033;-73
2023/02/13 09:58:19;;;;;;;30.08;16.17;;;;;;;;;;5007931;28;20111;-73
2023/02/13 10:00:48;;;;;;;28.70;15.57;;;;;;;;;;4999366;28;21373;-73
2023/02/13 10:03:13;;;;;;;32.38;14.90;;;;;;;;;;5011034;28;20137;-73
2023/02/13 10:06:07;;;;;;;29.15;14.27;;;;;;;;;;5011208;28;20152;-73
2023/02/13 10:08:38;;;;;;;24.98;12.85;;;;;;;;;;4999053;28;20042;-73
2023/02/13 10:11:27;;;;;;;29.25;13.93;;;;;;;;;;5010094;28;20072;-74
2023/02/13 10:14:03;;;;;;;26.48;13.60;;;;;;;;;;5001815;28;20113;-73
2023/02/13 10:17:00;;;;;;;32.83;14.35;;;;;;;;;;5002631;28;20034;-73
2023/02/13 10:19:39;;;;;;;32.38;14.40;;;;;;;;;;5012828;28;20461;-73
2023/02/13 10:22:11;;;;;;;26.33;14.95;;;;;;;;;;5010009;28;20033;-73
2023/02/13 10:24:42;;;;;;;30.65;12.98;;;;;;;;;;5010547;28;20100;-72
2023/02/13 10:27:19;;;;;;;26.23;13.10;;;;;;;;;;5005098;28;20459;-73
2023/02/13 10:30:05;;;;;;;23.38;13.15;;;;;;;;;;5004854;28;20037;-73
2023/02/13 10:32:43;;;;;;;23.10;12.27;;;;;;;;;;5002513;28;20049;-73
2023/02/13 10:35:19;;;;;;;24.50;12.57;;;;;;;;;;5011305;28;20038;-73
2023/02/13 10:37:49;;;;;;;24.85;12.75;;;;;;;;;;5011124;28;20034;-74
2023/02/13 10:40:16;;;;;;;26.88;12.18;;;;;;;;;;5002852;28;20046;-73
2023/02/13 10:42:53;;;;;;;22.65;11.60;;;;;;;;;;5004477;28;20088;-73
2023/02/13 10:45:39;;;;;;;23.60;11.57;;;;;;;;;;5010173;28;20069;-72
2023/02/13 10:48:49;;;;;;;25.65;12.35;;;;;;;;;;5010495;28;20100;-72
2023/02/13 10:51:24;;;;;;;26.50;12.60;;;;;;;;;;5004195;28;20254;-73
2023/02/13 10:53:52;;;;;;;26.23;12.82;;;;;;;;;;4997258;28;20178;-73
2023/02/13 10:56:32;;;;;;;19.90;11.00;;;;;;;;;;5009661;28;20046;-72
2023/02/13 10:59:16;;;;;;;23.42;11.63;;;;;;;;;;4996775;28;20034;-76
2023/02/13 11:01:44;;;;;;;20.92;11.45;;;;;;;;;;5001479;28;20060;-73
2023/02/13 11:04:12;;;;;;;15.07;7.30;;;;;;;;;;4997801;28;20042;-73
2023/02/13 11:06:59;;;;;;;16.60;8.63;;;;;;;;;;5019517;28;20041;-73
2023/02/13 11:09:25;;;;;;;24.83;11.90;;;;;;;;;;5006415;28;20067;-73
2023/02/13 11:11:51;;;;;;;23.42;11.25;;;;;;;;;;4999318;28;20044;-72
2023/02/13 11:14:22;;;;;;;26.83;12.52;;;;;;;;;;5008648;28;20034;-72
2023/02/13 11:17:05;;;;;;;27.77;13.75;;;;;;;;;;4995411;28;20046;-73
2023/02/13 11:19:37;;;;;;;24.63;11.75;;;;;;;;;;4999439;28;20052;-73
2023/02/13 11:22:26;;;;;;;27.70;13.05;;;;;;;;;;5009378;28;20042;-73
2023/02/13 11:24:55;;;;;;;26.85;11.95;;;;;;;;;;5007899;28;20053;-74
2023/02/13 11:27:31;;;;;;;24.85;12.60;;;;;;;;;;4998647;28;20434;-75
2023/02/13 11:30:00;;;;;;;20.73;12.13;;;;;;;;;;4996711;28;20046;-73
2023/02/13 11:32:28;;;;;;;25.55;12.23;;;;;;;;;;4992294;28;20139;-74
2023/02/13 11:34:54;;;;;;;24.05;13.43;;;;;;;;;;5006745;28;20180;-73
2023/02/13 11:37:23;;;;;;;27.15;13.65;;;;;;;;;;5008948;28;20037;-76
2023/02/13 11:39:51;;;;;;;27.45;13.82;;;;;;;;;;5009402;28;20493;-73
2023/02/13 11:42:25;;;;;;;32.03;14.15;;;;;;;;;;5000160;28;20046;-73
2023/02/13 11:45:06;;;;;;;29.65;14.07;;;;;;;;;;5009322;28;20045;-73
2023/02/13 11:47:39;;;;;;;29.55;14.40;;;;;;;;;;5008836;28;20041;-73
2023/02/13 11:50:23;;;;;;;24.40;13.88;;;;;;;;;;5009078;28;20057;-73
2023/02/13 11:53:03;;;;;;;25.60;14.32;;;;;;;;;;5006575;28;20034;-73
2023/02/13 11:55:38;;;;;;;30.00;13.20;;;;;;;;;;5001739;28;20588;-73
2023/02/13 11:58:09;;;;;;;26.98;12.70;;;;;;;;;;4994451;28;20061;-73
2023/02/13 12:00:38;;;;;;;27.60;14.07;;;;;;;;;;4991788;28;20052;-73
2023/02/13 12:03:28;;;;;;;29.10;13.98;;;;;;;;;;4993140;28;20035;-72
2023/02/13 12:06:04;;;;;;;29.65;15.68;;;;;;;;;;5005909;28;20383;-73
2023/02/13 12:08:31;;;;;;;26.35;13.70;;;;;;;;;;5012522;28;20121;-72
2023/02/13 12:10:57;;;;;;;28.20;14.05;;;;;;;;;;5011467;28;20045;-73
2023/02/13 12:13:36;;;;;;;30.02;15.05;;;;;;;;;;5012846;28;20435;-73
2023/02/13 12:16:09;;;;;;;30.73;14.90;;;;;;;;;;5010940;28;20034;-73
2023/02/13 12:18:41;;;;;;;23.15;12.20;;;;;;;;;;5001872;28;20108;-73
2023/02/13 12:21:41;;;;;;;31.67;15.57;;;;;;;;;;4992662;28;20042;-73
2023/02/13 12:24:22;;;;;;;32.90;15.82;;;;;;;;;;4999952;28;20048;-73
2023/02/13 12:26:52;;;;;;;27.90;16.40;;;;;;;;;;5012951;28;20140;-73
2023/02/13 12:29:42;;;;;;;32.13;16.48;;;;;;;;;;5011522;28;20533;-74
2023/02/13 12:32:16;;;;;;;29.80;15.70;;;;;;;;;;5011442;28;20046;-74
2023/02/13 12:35:22;;;;;;;27.70;15.27;;;;;;;;;;5011176;28;20498;-72
2023/02/13 12:37:53;;;;;;;27.13;15.35;;;;;;;;;;5012301;28;20393;-73
2023/02/13 12:40:38;;;;;;;30.75;16.73;;;;;;;;;;5010263;28;20068;-74
2023/02/13 12:43:35;;;;;;;;;;;;;;;;;;5011688;28;20041;-73
2023/02/13 12:46:34;;;;;;;28.95;15.55;;;;;;;;;;4985800;28;19976;-76
2023/02/13 12:49:27;;;;;;;28.40;14.82;;;;;;;;;;5005020;28;20100;-73
2023/02/13 12:52:07;;;;;;;26.98;14.38;;;;;;;;;;5005125;28;20057;-76
2023/02/13 12:54:45;;;;;;;33.15;16.17;;;;;;;;;;5007980;28;20046;-73
2023/02/13 12:57:19;;;;;;;28.50;14.93;;;;;;;;;;4989625;28;20045;-73
2023/02/13 12:59:45;;;;;;;32.80;16.42;;;;;;;;;;5008520;28;20077;-73
2023/02/13 13:02:31;;;;;;;28.42;15.25;;;;;;;;;;5006713;28;20418;-76
2023/02/13 13:05:04;;;;;;;27.95;15.32;;;;;;;;;;5001486;28;20046;-73
2023/02/13 13:07:57;;;;;;;29.33;15.52;;;;;;;;;;5002390;28;20061;-73
2023/02/13 13:10:34;;;;;;;33.30;16.60;;;;;;;;;;4995635;28;20040;-73
2023/02/13 13:13:11;;;;;;;27.88;15.65;;;;;;;;;;5004345;28;20046;-73
2023/02/13 13:16:14;;;;;;;35.13;16.52;;;;;;;;;;5008780;28;20046;-73
2023/02/13 13:19:13;;;;;;;25.13;12.32;;;;;;;;;;4985615;28;20230;-74
2023/02/13 13:21:52;;;;;;;24.70;13.57;;;;;;;;;;4992400;28;20429;-73
2023/02/13 13:24:41;;;;;;;31.50;14.90;;;;;;;;;;5011707;28;20058;-73
2023/02/13 13:27:18;;;;;;;31.83;15.27;;;;;;;;;;5006426;28;20034;-73
2023/02/13 13:29:50;;;;;;;33.50;15.65;;;;;;;;;;5011853;28;20055;-74
2023/02/13 13:32:19;;;;;;;30.25;14.38;;;;;;;;;;5009849;28;20398;-73
2023/02/13 13:34:45;;;;;;;19.05;11.75;;;;;;;;;;5005409;28;20123;-74
2023/02/13 13:37:25;;;;;;;26.30;13.93;;;;;;;;;;4991594;28;20092;-73
2023/02/13 13:39:56;;;;;;;36.03;15.70;;;;;;;;;;5000181;28;20132;-76
2023/02/13 13:42:38;;;;;;;24.75;13.02;;;;;;;;;;4978564;28;20045;-73
2023/02/13 13:45:25;;;;;;;23.92;12.50;;;;;;;;;;5003773;28;20041;-73
2023/02/13 13:48:23;;;;;;;27.67;14.43;;;;;;;;;;5007188;28;20084;-73
2023/02/13 13:50:49;;;;;;;27.15;13.98;;;;;;;;;;4994844;28;20065;-73
2023/02/13 13:53:22;;;;;;;25.80;14.02;;;;;;;;;;5025035;28;20041;-73
2023/02/13 13:55:51;;;;;;;30.00;14.50;;;;;;;;;;5009458;28;20389;-74
2023/02/13 13:58:37;;;;;;;24.77;13.32;;;;;;;;;;4995842;28;20397;-75
2023/02/13 14:01:22;;;;;;;25.42;13.98;;;;;;;;;;5006765;28;20057;-72
2023/02/13 14:04:31;;;;;;;27.08;13.15;;;;;;;;;;4994647;28;20113;-73
2023/02/13 14:06:57;;;;;;;32.60;14.18;;;;;;;;;;4999537;28;20069;-73
2023/02/13 14:09:25;;;;;;;23.85;12.52;;;;;;;;;;4999583;28;20088;-73
2023/02/13 14:11:51;;;;;;;22.58;13.23;;;;;;;;;;4996307;28;20038;-74
2023/02/13 14:14:29;;;;;;;25.60;12.70;;;;;;;;;;5017043;28;20520;-73
2023/02/13 14:16:56;;;;;;;27.45;13.85;;;;;;;;;;5007094;28;20034;-73
2023/02/13 14:19:25;;;;;;;27.63;14.25;;;;;;;;;;5001011;28;21016;-73
2023/02/13 14:21:51;;;;;;;23.42;12.05;;;;;;;;;;5024697;28;20029;-73
2023/02/13 14:24:18;;;;;;;27.30;13.85;;;;;;;;;;5009569;28;20044;-73
2023/02/13 14:26:50;;;;;;;29.38;14.70;;;;;;;;;;5023987;28;20367;-73
2023/02/13 14:29:22;;;;;;;28.23;13.82;;;;;;;;;;5021065;28;20038;-72
2023/02/13 14:32:07;;;;;;;25.08;12.80;;;;;;;;;;5005498;28;20136;-72
2023/02/13 14:34:37;;;;;;;26.85;13.82;;;;;;;;;;5024204;28;20036;-73
2023/02/13 14:37:26;;;;;;;30.23;13.70;;;;;;;;;;5007255;28;20049;-73
2023/02/13 14:40:14;;;;;;;31.40;13.85;;;;;;;;;;5008446;28;20040;-73
2023/02/13 14:42:41;;;;;;;23.15;12.95;;;;;;;;;;5008911;28;20120;-73
2023/02/13 14:45:23;;;;;;;24.63;11.88;;;;;;;;;;5007187;28;20100;-73
2023/02/13 14:47:54;;;;;;;26.55;13.48;;;;;;;;;;5009816;28;20433;-73
2023/02/13 14:50:28;;;;;;;24.70;13.27;;;;;;;;;;5007555;28;20055;-73
2023/02/13 14:52:56;;;;;;;25.52;14.13;;;;;;;;;;5008273;28;20042;-72
2023/02/13 14:55:35;;;;;;;25.73;13.13;;;;;;;;;;5024479;28;20038;-72
2023/02/13 14:58:11;;;;;;;28.15;13.25;;;;;;;;;;5007320;28;20042;-73
2023/02/13 15:00:42;;;;;;;19.73;8.75;;;;;;;;;;5006741;28;20037;-73
2023/02/13 15:03:38;;;;;;;26.65;12.85;;;;;;;;;;4994467;28;20041;-73
2023/02/13 15:06:12;;;;;;;22.13;10.63;;;;;;;;;;5007716;28;20034;-73
2023/02/13 15:08:44;;;;;;;23.42;12.55;;;;;;;;;;5023413;28;20088;-75
2023/02/13 15:11:34;;;;;;;27.67;12.93;;;;;;;;;;5034496;28;20485;-75
2023/02/13 15:14:15;;;;;;;25.48;12.52;;;;;;;;;;4993458;28;20490;-73
2023/02/13 15:16:40;;;;;;;28.73;12.88;;;;;;;;;;5004627;28;20038;-73
2023/02/13 15:19:14;;;;;;;26.02;13.77;;;;;;;;;;5008136;28;20050;-73
2023/02/13 15:21:46;;;;;;;23.08;12.13;;;;;;;;;;5007125;28;20041;-72
2023/02/13 15:24:13;;;;;;;22.77;11.48;;;;;;;;;;5023961;28;20044;-73
2023/02/13 15:26:39;;;;;;;23.35;13.07;;;;;;;;;;5022651;28;21020;-73
2023/02/13 15:29:14;;;;;;;25.70;13.07;;;;;;;;;;5008373;28;20037;-73